Logan, UT (84321)

8:10 PM MDT on July 25, 2016 (GMT -0600)
KUTLOGAN16 | | Change Station

Elev 4452 ft 41.77 °N, 111.86 °W | Updated 34 seconds ago

Clear
Clear
89.1 °F
Feels Like 85 °F
N
1.9
Wind Variable Wind from North

Today
High -- | Low -- °F
--% Chance of Precip.
Yesterday
High -- | Low -- °F
Precip. -- in
Pressure 29.83 in
Visibility 10.0 miles
Clouds Clear
Heat Index 85 °F
Dew Point 41 °F
Humidity 18%
Rainfall Not available.
Snow Depth Not available.
6:15 AM 8:51 PM
Waning Gibbous, 60% visible
METAR KLGU 260151Z AUTO 19005KT 10SM CLR 34/02 A3000 RMK AO2 SLP100 T03390017
Pressure 29.83 in
Visibility 10.0 miles
Clouds Clear
Heat Index 85 °F
Dew Point 41 °F
Humidity 18%
Rainfall Not available.
Snow Depth Not available.
6:15 AM 8:51 PM
Waning Gibbous, 60% visible
METAR KLGU 260151Z AUTO 19005KT 10SM CLR 34/02 A3000 RMK AO2 SLP100 T03390017

10-Day Weather Forecast

Almanac

Astronomy

Jul. 25, 2016 Rise Set
Actual Time
Civil Twilight
Nautical Twilight
Astronomical Twilight
Moon
Length of Visible Light
Length of Day
Tomorrow will be .
, % of the Moon is Illuminated

Today's Extremes

State Highs State Lows

Community

WunderPhotos

Upload Photos

1,927,497 photos uploaded!

WunderBlog® & News

Nearby

Air Quality

  Air Quality AQ Index Pollutant
Not available.

Snow Depth

Station Depth Elevation

Earthquake Activity

City Distance Mag. Time & Date
Minimum magnitude displayed is 2.5.

Coastal Water Temperatures

Place Temperature

Stations

Nearby Weather Stations

Station Location Temp. Windchill Dew Point Humidity Wind Precip. Elev Updated Type
                   

Watches & Warnings

There are currently no watches in effect.